KDSM

Des Moines International Airport

Des Moines, Iowa, USA
METAR KDSM 201554Z 11006KT 10SM -DZ SCT007 OVC024 21/20 A2964 RMK AO2 RAE20DZB20E30B46 SLP031 P0004 T02110200
Observed Flight Rules
Aug-20 @ 15:54 UTC (30 minutes ago) Marginal Visual Flight Rules
Wind Visibility Clouds Conditions
110° at 6 knots 10 miles
  • Scattered at 700' AGL
  • Overcast at 2,400' AGL
  • Light Drizzle
Temperatures Readings Precipitation
Current 21°C / 70°F
Dewpoint 20°C / 68°F
Humidity 94%
Altimeter 29.64" Hg
Pressure 1003.1 hPa
Elevation 295
Current Rain 0.04
METAR KDSM 201554Z 11006KT 10SM -DZ SCT007 OVC024 21/20 A2964 RMK AO2 RAE20DZB20E30B46 SLP031 P0004 T02110200
Observed Flight Rules
Aug-20 @ 15:54 UTC
(30 minutes ago)
MVFR
Wind Visibility
110° at 6 knots 10 miles
Clouds
  • Scattered at 700' AGL
  • Overcast at 2,400' AGL
Conditions
  • Light Drizzle
Temperature Dewpoint
21°C / 70°F 20°C / 68°F
Humidity Altimeter Pressure
94% 29.64" Hg 1003.1 hPa
Current Rain
0.04